createdAt,value
2022-12-16T00:01:27.020Z,22.45
2022-12-16T00:03:55.660Z,26.02
2022-12-16T00:06:24.372Z,24.90
2022-12-16T00:08:52.096Z,27.25
2022-12-16T00:11:20.016Z,23.00
2022-12-16T00:13:48.066Z,24.70
2022-12-16T00:16:16.971Z,22.20
2022-12-16T00:18:44.948Z,23.77
2022-12-16T00:21:12.421Z,22.00
2022-12-16T00:23:41.725Z,26.13
2022-12-16T00:26:09.451Z,24.67
2022-12-16T00:28:37.571Z,29.08
2022-12-16T00:31:05.212Z,37.53
2022-12-16T00:33:33.506Z,36.65
2022-12-16T00:36:01.013Z,38.08
2022-12-16T00:38:28.296Z,37.85
2022-12-16T00:40:55.603Z,40.40
2022-12-16T00:43:23.100Z,35.47
2022-12-16T00:45:50.399Z,30.05
2022-12-16T00:48:19.288Z,33.63
2022-12-16T00:50:49.390Z,39.22
2022-12-16T00:53:20.193Z,41.42
2022-12-16T00:55:47.432Z,31.92
2022-12-16T00:58:14.735Z,37.10
2022-12-16T01:00:42.054Z,34.53
2022-12-16T01:03:09.609Z,32.35
2022-12-16T01:05:38.143Z,36.13
2022-12-16T01:08:05.491Z,32.20
2022-12-16T01:10:32.743Z,30.63
2022-12-16T01:13:00.004Z,30.70
2022-12-16T01:15:27.772Z,31.05
2022-12-16T01:17:55.983Z,30.20
2022-12-16T01:20:23.172Z,29.50
2022-12-16T01:22:50.408Z,27.92
2022-12-16T01:25:18.017Z,26.50
2022-12-16T01:27:45.519Z,22.42
2022-12-16T01:30:13.120Z,27.13
2022-12-16T01:32:40.367Z,28.40
2022-12-16T01:35:29.382Z,26.60
2022-12-16T01:37:56.211Z,24.90
2022-12-16T01:40:23.682Z,25.55
2022-12-16T01:42:51.199Z,17.88
2022-12-16T01:45:33.285Z,20.45
2022-12-16T01:48:04.165Z,23.00
2022-12-16T01:50:31.746Z,24.83
2022-12-16T01:53:00.135Z,19.08
2022-12-16T01:55:48.003Z,22.85
2022-12-16T01:58:26.534Z,19.20
2022-12-16T02:00:54.705Z,18.90
2022-12-16T02:03:22.752Z,20.98
2022-12-16T02:05:50.070Z,20.77
2022-12-16T02:08:19.114Z,27.17
2022-12-16T02:11:04.924Z,23.95
2022-12-16T02:13:35.628Z,24.92
2022-12-16T02:16:17.165Z,20.73
2022-12-16T02:19:26.097Z,20.27
2022-12-16T02:22:15.415Z,23.45
2022-12-16T02:25:17.277Z,25.02
2022-12-16T02:28:04.107Z,24.27
2022-12-16T02:30:56.408Z,20.50
2022-12-16T02:33:29.572Z,22.35
2022-12-16T02:36:24.770Z,21.60
2022-12-16T02:38:59.638Z,23.30
2022-12-16T02:41:48.599Z,25.02
2022-12-16T02:44:16.534Z,29.30
2022-12-16T02:46:52.946Z,21.90
2022-12-16T02:49:23.078Z,19.05
2022-12-16T02:51:50.724Z,18.10
2022-12-16T02:54:18.913Z,23.85
2022-12-16T02:57:04.524Z,24.70
2022-12-16T02:59:34.385Z,27.88
2022-12-16T03:02:13.325Z,31.65
2022-12-16T03:04:43.501Z,27.10
2022-12-16T03:07:12.336Z,21.73
2022-12-16T03:09:40.024Z,26.05
2022-12-16T03:12:10.247Z,25.95
2022-12-16T03:14:38.800Z,24.00
2022-12-16T03:17:07.063Z,28.02
2022-12-16T03:19:34.608Z,27.42
2022-12-16T03:22:09.327Z,23.67
2022-12-16T03:24:36.600Z,27.20
2022-12-16T03:27:41.416Z,23.20
2022-12-16T03:30:09.905Z,27.40
2022-12-16T03:32:45.085Z,34.75
2022-12-16T03:35:26.708Z,37.40
2022-12-16T03:37:55.734Z,34.10
2022-12-16T03:40:23.933Z,32.97
2022-12-16T03:42:52.634Z,26.25
2022-12-16T03:45:23.372Z,28.90
2022-12-16T03:47:51.244Z,86.32
2022-12-16T03:50:24.481Z,68.03
2022-12-16T03:52:51.682Z,64.75
2022-12-16T03:55:19.006Z,56.50
2022-12-16T03:57:46.229Z,45.80
2022-12-16T04:00:15.234Z,46.92
2022-12-16T04:02:43.041Z,54.65
2022-12-16T04:05:10.593Z,60.95
2022-12-16T04:07:38.065Z,81.18
2022-12-16T04:10:05.788Z,57.00
2022-12-16T04:12:52.007Z,40.20
2022-12-16T04:15:38.094Z,48.08
2022-12-16T04:18:35.110Z,35.60
2022-12-16T04:21:21.028Z,34.75
2022-12-16T04:24:14.970Z,30.92
2022-12-16T04:27:00.744Z,27.80
2022-12-16T04:29:27.946Z,31.55
2022-12-16T04:31:55.451Z,34.30
2022-12-16T04:34:25.559Z,37.58
2022-12-16T04:37:16.102Z,30.75
2022-12-16T04:40:02.405Z,35.60
2022-12-16T04:42:48.524Z,33.78
2022-12-16T04:45:34.651Z,38.67
2022-12-16T04:48:20.908Z,42.92
2022-12-16T04:51:06.850Z,40.17
2022-12-16T04:53:53.550Z,35.13
2022-12-16T04:56:39.621Z,30.63
2022-12-16T04:59:25.636Z,30.58
2022-12-16T05:02:11.911Z,28.25
2022-12-16T05:04:57.938Z,34.72
2022-12-16T05:07:44.427Z,29.67
2022-12-16T05:10:30.668Z,34.88
2022-12-16T05:13:16.729Z,28.77
2022-12-16T05:16:02.696Z,48.80
2022-12-16T05:18:48.832Z,82.57
2022-12-16T05:21:34.732Z,68.57
2022-12-16T05:24:20.440Z,42.22
2022-12-16T05:27:06.408Z,41.80
2022-12-16T05:29:52.470Z,34.42
2022-12-16T05:32:38.232Z,43.88
2022-12-16T05:35:24.709Z,25.58
2022-12-16T05:38:10.711Z,32.03
2022-12-16T05:41:03.771Z,32.58
2022-12-16T05:43:57.184Z,28.88
2022-12-16T05:46:43.377Z,26.27
2022-12-16T05:49:29.692Z,30.08
2022-12-16T05:52:15.794Z,22.00
2022-12-16T05:55:03.607Z,28.42
2022-12-16T05:57:49.679Z,26.90
2022-12-16T06:00:35.528Z,26.23
2022-12-16T06:03:21.575Z,27.23
2022-12-16T06:06:07.483Z,24.67
2022-12-16T06:08:53.361Z,24.13
2022-12-16T06:11:39.648Z,25.08
2022-12-16T06:14:25.639Z,27.35
2022-12-16T06:17:11.471Z,26.77
2022-12-16T06:19:57.572Z,31.48
2022-12-16T06:22:43.367Z,25.98
2022-12-16T06:25:29.179Z,29.90
2022-12-16T06:31:43.926Z,29.73
2022-12-16T06:34:29.898Z,28.45
2022-12-16T06:37:17.962Z,30.75
2022-12-16T06:40:03.826Z,22.17
2022-12-16T06:42:49.650Z,26.08
2022-12-16T06:49:43.047Z,27.17
2022-12-16T06:52:29.147Z,28.55
2022-12-16T06:55:15.445Z,26.77
2022-12-16T06:58:01.875Z,31.85
2022-12-16T07:00:49.260Z,29.48
2022-12-16T07:03:36.195Z,30.98
2022-12-16T07:06:22.251Z,31.50
2022-12-16T07:09:08.019Z,38.38
2022-12-16T07:11:54.675Z,32.38
2022-12-16T07:14:42.000Z,32.35
2022-12-16T07:22:26.718Z,27.13
2022-12-16T07:25:12.884Z,22.30
2022-12-16T07:27:58.873Z,24.10
2022-12-16T07:30:44.660Z,25.38
2022-12-16T07:33:30.859Z,30.90
2022-12-16T07:36:17.265Z,27.48
2022-12-16T07:39:03.332Z,22.88
2022-12-16T07:41:49.175Z,26.02
2022-12-16T07:44:35.123Z,29.50
2022-12-16T07:47:20.981Z,26.92
2022-12-16T07:50:06.924Z,25.05
2022-12-16T07:52:52.971Z,30.33
2022-12-16T07:55:41.428Z,23.02
2022-12-16T07:58:28.685Z,32.60
2022-12-16T08:01:14.724Z,27.83
2022-12-16T08:04:00.642Z,28.02
2022-12-16T08:06:46.682Z,35.42
2022-12-16T08:09:35.049Z,30.60
2022-12-16T08:12:21.179Z,23.67
2022-12-16T08:15:07.619Z,37.40
2022-12-16T08:17:54.180Z,32.25
2022-12-16T08:20:41.632Z,32.15
2022-12-16T08:23:27.592Z,30.90
2022-12-16T08:26:13.544Z,32.10
2022-12-16T08:29:13.922Z,32.72
2022-12-16T08:32:06.200Z,31.98
2022-12-16T08:34:52.363Z,30.73
2022-12-16T08:37:40.446Z,28.20
2022-12-16T08:40:35.209Z,31.60
2022-12-16T08:43:21.359Z,31.90
2022-12-16T08:46:24.101Z,29.48
2022-12-16T08:49:10.623Z,29.08
2022-12-16T08:51:56.821Z,30.05
2022-12-16T08:54:42.762Z,25.63
2022-12-16T08:57:28.699Z,25.20
2022-12-16T09:00:14.445Z,23.58
2022-12-16T09:03:00.818Z,23.38
2022-12-16T09:05:46.648Z,21.17
2022-12-16T09:08:32.634Z,18.40
2022-12-16T09:11:19.732Z,20.52
2022-12-16T09:14:05.622Z,16.90
2022-12-16T09:16:54.132Z,19.27
2022-12-16T09:19:41.109Z,18.85
2022-12-16T09:22:26.887Z,21.63
2022-12-16T09:25:13.284Z,20.95
2022-12-16T09:27:59.788Z,24.95
2022-12-16T09:30:46.013Z,23.38
2022-12-16T09:33:32.412Z,25.73
2022-12-16T09:36:18.873Z,20.42
2022-12-16T09:39:04.666Z,24.05
2022-12-16T09:42:04.308Z,25.48
2022-12-16T09:45:17.175Z,20.80
2022-12-16T09:48:09.619Z,24.17
2022-12-16T09:50:57.137Z,19.55
2022-12-16T09:53:42.978Z,24.58
2022-12-16T09:56:50.545Z,23.92
2022-12-16T09:59:46.443Z,24.20
2022-12-16T10:02:33.012Z,23.70
2022-12-16T10:05:19.581Z,30.77
2022-12-16T10:08:19.593Z,22.13
2022-12-16T10:11:19.398Z,25.85
2022-12-16T10:14:17.645Z,22.05
2022-12-16T10:17:08.297Z,30.80
2022-12-16T10:20:13.634Z,25.90
2022-12-16T10:23:22.783Z,23.10
2022-12-16T10:26:11.570Z,22.85
2022-12-16T10:29:08.118Z,23.30
2022-12-16T10:31:54.371Z,27.00
2022-12-16T10:34:46.840Z,21.15
2022-12-16T10:40:20.615Z,15.35
2022-12-16T10:43:08.634Z,18.30
2022-12-16T10:46:04.962Z,19.65
2022-12-16T10:48:56.199Z,22.55
2022-12-16T10:51:44.964Z,21.42
2022-12-16T10:54:40.223Z,21.70
2022-12-16T10:57:56.627Z,17.17
2022-12-16T11:01:08.115Z,17.65
2022-12-16T11:03:55.599Z,11.70
2022-12-16T11:06:45.752Z,15.93
2022-12-16T11:09:41.797Z,15.32
2022-12-16T11:12:44.216Z,19.67
2022-12-16T11:15:47.342Z,16.10
2022-12-16T11:18:38.282Z,18.38
2022-12-16T11:21:30.131Z,22.47
2022-12-16T11:24:35.356Z,18.48
2022-12-16T11:27:44.228Z,19.83
2022-12-16T11:30:42.612Z,23.67
2022-12-16T11:33:34.003Z,17.30
2022-12-16T11:39:16.914Z,19.88
2022-12-16T11:42:06.049Z,17.27
2022-12-16T11:45:00.287Z,13.50
2022-12-16T11:47:59.780Z,16.65
2022-12-16T11:50:47.112Z,13.80
2022-12-16T11:53:49.198Z,16.05
2022-12-16T11:56:39.258Z,14.40
2022-12-16T11:59:46.638Z,12.85
2022-12-16T12:02:54.456Z,16.98
2022-12-16T12:05:52.087Z,17.25
2022-12-16T12:08:57.849Z,15.20
2022-12-16T12:11:49.359Z,14.93
2022-12-16T12:14:44.326Z,11.35
2022-12-16T12:17:48.619Z,14.82
2022-12-16T12:21:18.023Z,17.13
2022-12-16T12:24:31.585Z,18.38
2022-12-16T12:27:43.795Z,15.38
2022-12-16T12:30:34.556Z,19.33
2022-12-16T12:33:51.555Z,17.63
2022-12-16T12:36:59.100Z,23.08
2022-12-16T12:40:04.973Z,13.68
2022-12-16T12:42:55.067Z,15.25
2022-12-16T12:45:49.252Z,18.33
2022-12-16T12:48:57.834Z,16.35
2022-12-16T12:52:00.276Z,20.80
2022-12-16T12:54:54.022Z,13.85
2022-12-16T12:57:42.342Z,17.58
2022-12-16T13:00:34.365Z,16.63
2022-12-16T13:03:28.784Z,17.88
2022-12-16T13:06:14.855Z,20.90
2022-12-16T13:09:19.593Z,21.17
2022-12-16T13:12:34.461Z,16.00
2022-12-16T13:15:25.594Z,22.75
2022-12-16T13:18:18.229Z,24.15
2022-12-16T13:21:05.437Z,22.25
2022-12-16T13:24:00.778Z,16.35
2022-12-16T13:26:48.624Z,16.88
2022-12-16T13:29:42.627Z,19.08
2022-12-16T13:32:28.520Z,19.75
2022-12-16T13:35:20.769Z,18.50
2022-12-16T13:38:23.613Z,20.10
2022-12-16T13:41:22.997Z,18.55
2022-12-16T13:44:15.318Z,18.92
2022-12-16T13:47:07.987Z,19.67
2022-12-16T13:50:09.820Z,20.02
2022-12-16T13:52:58.882Z,27.35
2022-12-16T13:56:12.624Z,16.85
2022-12-16T13:59:01.421Z,26.10
2022-12-16T14:02:00.419Z,32.03
2022-12-16T14:05:19.125Z,18.17
2022-12-16T14:08:05.682Z,25.65
2022-12-16T14:10:54.091Z,28.58
2022-12-16T14:14:05.077Z,29.10
2022-12-16T14:17:03.015Z,30.15
2022-12-16T14:20:07.389Z,34.70
2022-12-16T14:22:59.939Z,28.27
2022-12-16T14:25:46.227Z,32.88
2022-12-16T14:28:41.991Z,30.35
2022-12-16T14:31:41.499Z,23.08
2022-12-16T14:34:38.313Z,25.08
2022-12-16T14:37:35.691Z,26.77
2022-12-16T14:40:23.017Z,23.23
2022-12-16T14:43:12.930Z,18.58
2022-12-16T14:46:00.193Z,21.75
2022-12-16T14:48:51.263Z,22.35
2022-12-16T14:54:39.093Z,24.83
2022-12-16T15:00:28.649Z,31.10
2022-12-16T15:03:34.129Z,38.40
2022-12-16T15:06:22.179Z,37.33
2022-12-16T15:09:13.152Z,40.78
2022-12-16T15:11:59.244Z,26.98
2022-12-16T15:14:48.762Z,61.83
2022-12-16T15:18:10.678Z,45.80
2022-12-16T15:23:49.113Z,22.63
2022-12-16T15:26:39.236Z,29.95
2022-12-16T15:29:48.470Z,36.35
2022-12-16T15:32:43.533Z,31.65
2022-12-16T15:35:45.326Z,35.75
2022-12-16T15:38:44.666Z,35.70
2022-12-16T15:42:01.572Z,34.05
2022-12-16T15:44:48.090Z,38.75
2022-12-16T15:47:52.837Z,33.85
2022-12-16T15:50:45.356Z,33.55
2022-12-16T15:53:34.621Z,44.28
2022-12-16T15:56:20.749Z,36.10
2022-12-16T15:59:26.823Z,35.83
2022-12-16T16:02:13.825Z,40.78
2022-12-16T16:04:59.940Z,34.88
2022-12-16T16:07:46.738Z,29.77
2022-12-16T16:10:34.044Z,29.73
2022-12-16T16:13:20.784Z,42.70
2022-12-16T16:16:06.809Z,40.53
2022-12-16T16:18:53.659Z,32.45
2022-12-16T16:21:39.477Z,31.58
2022-12-16T16:24:25.659Z,40.72
2022-12-16T16:27:15.258Z,38.17
2022-12-16T16:30:01.045Z,43.13
2022-12-16T16:32:47.120Z,35.08
2022-12-16T16:35:33.444Z,27.45
2022-12-16T16:38:19.503Z,34.22
2022-12-16T16:41:05.422Z,43.28
2022-12-16T16:43:51.557Z,38.85
2022-12-16T16:47:00.436Z,31.95
2022-12-16T16:49:54.637Z,46.28
2022-12-16T16:52:41.919Z,36.38
2022-12-16T16:55:36.574Z,38.22
2022-12-16T16:58:38.193Z,32.40
2022-12-16T17:01:24.687Z,25.13
2022-12-16T17:04:10.947Z,45.03
2022-12-16T17:06:56.987Z,28.23
2022-12-16T17:09:42.897Z,24.33
2022-12-16T17:12:42.310Z,56.47
2022-12-16T17:15:31.308Z,52.90
2022-12-16T17:18:17.389Z,28.13
2022-12-16T17:21:03.325Z,38.25
2022-12-16T17:23:49.222Z,25.48
2022-12-16T17:26:35.250Z,36.40
2022-12-16T17:29:21.224Z,20.77
2022-12-16T17:32:07.544Z,32.20
2022-12-16T17:34:53.448Z,23.98
2022-12-16T17:37:39.232Z,28.17
2022-12-16T17:40:25.757Z,24.05
2022-12-16T17:43:11.907Z,27.65
2022-12-16T17:45:57.973Z,18.05
2022-12-16T17:48:45.661Z,42.75
2022-12-16T17:51:31.780Z,22.45
2022-12-16T17:54:23.709Z,19.25
2022-12-16T17:57:11.068Z,24.42
2022-12-16T17:59:57.351Z,25.05
2022-12-16T18:02:43.503Z,19.20
2022-12-16T18:05:37.696Z,24.92
2022-12-16T18:08:27.213Z,28.27
2022-12-16T18:11:14.169Z,16.05
2022-12-16T18:14:00.113Z,38.55
2022-12-16T18:16:46.102Z,24.20
2022-12-16T18:19:33.268Z,35.75
2022-12-16T18:22:19.522Z,30.35
2022-12-16T18:25:05.731Z,55.58
2022-12-16T18:27:51.586Z,69.07
2022-12-16T18:30:37.607Z,43.33
2022-12-16T18:33:23.494Z,47.60
2022-12-16T18:36:09.593Z,41.50
2022-12-16T18:38:55.547Z,33.50
2022-12-16T18:41:41.527Z,50.08
2022-12-16T18:44:28.941Z,32.42
2022-12-16T18:47:14.772Z,32.35
2022-12-16T18:50:00.954Z,34.50
2022-12-16T18:52:47.445Z,16.92
2022-12-16T18:55:33.844Z,36.38
2022-12-16T18:58:50.669Z,37.83
2022-12-16T19:01:27.380Z,13.82
2022-12-16T19:04:14.608Z,35.97
2022-12-16T19:07:00.920Z,24.10
2022-12-16T19:09:47.012Z,44.03
2022-12-16T19:12:33.047Z,31.95
2022-12-16T19:15:20.430Z,30.55
2022-12-16T19:18:08.676Z,21.25
2022-12-16T19:20:56.752Z,45.58
2022-12-16T19:23:42.814Z,16.33
2022-12-16T19:26:28.852Z,18.23
2022-12-16T19:29:15.976Z,24.40
2022-12-16T19:32:05.571Z,38.30
2022-12-16T19:34:52.111Z,32.95
2022-12-16T19:40:40.181Z,40.08
2022-12-16T19:43:25.953Z,36.42
